GRZ537 Details

Departure: Deadhorse Airport (PASC)
Arrival: Ted Stevens Anchorage International Airport (PANC)
Route: CQR PUYVO KROTO4


Current Weather Information
PASC 260053Z 11009KT 10SM CLR M08/M12 A3038 RMK AO2 SLP289 T10831117
PANC 260053Z 20010KT 10SM FEW050 FEW100 BKN190 09/M06 A3007 RMK AO2 SLP183 ACSL DSNT S T00941061